EWG6J EDDM-EDLW
Flight info
| Callsign | EWG6J |
|---|---|
| Flight time | 0h 51m |
| Altitude | 30000 |
| Route | INPUD3Q/08L INPUD Y102 ALIBU DCT FULNO T842 IDEWE/N0375F240 T842 ADEMI ADEMI2A |
| Aircraft | A319/M-SDE3FGHIRWY/LB1 |
Departure
| Time | 2026-04-30 14:02 |
|---|---|
| Airport | Munich Airport (EDDM) |
Arrival
| Time | 2026-04-30 14:54 |
|---|---|
| Airport | Dortmund Airport (EDLW) |
| Time | Latitude | Longitude | Altitude | Speed | Heading |
|---|---|---|---|---|---|
| 2026-04-30 13:38 | 48.35161 | 11.79345 | 1467 ft | 0 kts | 263° |
| 2026-04-30 13:49 | 48.35162 | 11.79357 | 1467 ft | 3 kts | 263° |
| 2026-04-30 13:49 | 48.35164 | 11.79385 | 1461 ft | 3 kts | 263° |
| 2026-04-30 13:50 | 48.35168 | 11.79422 | 1460 ft | 3 kts | 271° |
| 2026-04-30 13:50 | 48.35164 | 11.79478 | 1459 ft | 3 kts | 295° |
| 2026-04-30 13:50 | 48.35157 | 11.79494 | 1457 ft | 3 kts | 324° |
| 2026-04-30 13:51 | 48.35156 | 11.79496 | 1459 ft | 0 kts | 324° |
| 2026-04-30 13:51 | 48.35157 | 11.79495 | 1457 ft | 0 kts | 324° |
| 2026-04-30 13:51 | 48.35160 | 11.79494 | 1458 ft | 1 kts | 339° |
| 2026-04-30 13:52 | 48.35162 | 11.79495 | 1458 ft | 0 kts | 356° |
| 2026-04-30 13:53 | 48.35168 | 11.79495 | 1459 ft | 2 kts | 357° |
| 2026-04-30 13:53 | 48.35188 | 11.79493 | 1463 ft | 4 kts | 358° |
| 2026-04-30 13:53 | 48.35223 | 11.79491 | 1467 ft | 6 kts | 356° |
| 2026-04-30 13:54 | 48.35273 | 11.79484 | 1467 ft | 8 kts | 354° |
| 2026-04-30 13:54 | 48.35338 | 11.79473 | 1467 ft | 11 kts | 354° |
| 2026-04-30 13:54 | 48.35418 | 11.79459 | 1463 ft | 13 kts | 353° |
| 2026-04-30 13:54 | 48.35514 | 11.79443 | 1459 ft | 15 kts | 353° |
| 2026-04-30 13:55 | 48.35623 | 11.79424 | 1461 ft | 17 kts | 353° |
| 2026-04-30 13:55 | 48.35745 | 11.79402 | 1464 ft | 19 kts | 353° |
| 2026-04-30 13:55 | 48.35879 | 11.79377 | 1460 ft | 20 kts | 345° |
| 2026-04-30 13:55 | 48.36013 | 11.79331 | 1467 ft | 19 kts | 353° |
| 2026-04-30 13:56 | 48.36085 | 11.79222 | 1468 ft | 18 kts | 268° |
| 2026-04-30 13:56 | 48.36071 | 11.79035 | 1468 ft | 18 kts | 263° |
| 2026-04-30 13:56 | 48.36055 | 11.78838 | 1468 ft | 19 kts | 263° |
| 2026-04-30 13:56 | 48.36038 | 11.78630 | 1467 ft | 21 kts | 263° |
| 2026-04-30 13:57 | 48.36021 | 11.78412 | 1467 ft | 22 kts | 263° |
| 2026-04-30 13:57 | 48.36004 | 11.78184 | 1458 ft | 22 kts | 263° |
| 2026-04-30 13:57 | 48.35986 | 11.77945 | 1463 ft | 24 kts | 263° |
| 2026-04-30 13:57 | 48.35967 | 11.77701 | 1467 ft | 24 kts | 263° |
| 2026-04-30 13:58 | 48.35948 | 11.77451 | 1458 ft | 24 kts | 263° |
| 2026-04-30 13:58 | 48.35943 | 11.77057 | 1463 ft | 16 kts | 305° |
| 2026-04-30 13:58 | 48.36030 | 11.76972 | 1466 ft | 16 kts | 352° |
| 2026-04-30 13:59 | 48.36137 | 11.76952 | 1467 ft | 12 kts | 353° |
| 2026-04-30 13:59 | 48.36182 | 11.76944 | 1467 ft | 0 kts | 353° |
| 2026-04-30 13:59 | 48.36183 | 11.76944 | 1467 ft | 1 kts | 353° |
| 2026-04-30 14:00 | 48.36195 | 11.76942 | 1460 ft | 3 kts | 353° |
| 2026-04-30 14:00 | 48.36281 | 11.76939 | 1467 ft | 9 kts | 32° |
| 2026-04-30 14:00 | 48.36295 | 11.76987 | 1460 ft | 0 kts | 83° |
| 2026-04-30 14:01 | 48.36303 | 11.77087 | 1471 ft | 32 kts | 83° |
| 2026-04-30 14:01 | 48.36352 | 11.77723 | 1460 ft | 90 kts | 83° |
| 2026-04-30 14:01 | 48.36448 | 11.78930 | 1467 ft | 141 kts | 83° |
| 2026-04-30 14:02 | 48.36577 | 11.80549 | 1808 ft | 159 kts | 83° |
| 2026-04-30 14:02 | 48.36709 | 11.82215 | 2602 ft | 162 kts | 83° |
| 2026-04-30 14:02 | 48.36845 | 11.83980 | 3106 ft | 180 kts | 84° |
| 2026-04-30 14:02 | 48.37118 | 11.85929 | 3529 ft | 205 kts | 66° |
| 2026-04-30 14:03 | 48.38240 | 11.87433 | 3986 ft | 239 kts | 25° |
| 2026-04-30 14:03 | 48.39968 | 11.87780 | 4755 ft | 261 kts | 3° |
| 2026-04-30 14:03 | 48.41753 | 11.87006 | 5721 ft | 279 kts | 330° |
| 2026-04-30 14:03 | 48.43090 | 11.84822 | 6741 ft | 291 kts | 305° |
| 2026-04-30 14:04 | 48.44258 | 11.82319 | 7750 ft | 292 kts | 309° |
| 2026-04-30 14:04 | 48.45524 | 11.79907 | 8715 ft | 295 kts | 312° |
| 2026-04-30 14:04 | 48.46851 | 11.77540 | 9689 ft | 297 kts | 314° |
| 2026-04-30 14:04 | 48.48213 | 11.75174 | 10605 ft | 300 kts | 314° |
| 2026-04-30 14:05 | 48.49591 | 11.72795 | 11466 ft | 302 kts | 315° |
| 2026-04-30 14:05 | 48.50976 | 11.70399 | 12342 ft | 304 kts | 315° |
| 2026-04-30 14:05 | 48.52367 | 11.67981 | 13200 ft | 306 kts | 315° |
| 2026-04-30 14:05 | 48.53766 | 11.65527 | 14060 ft | 309 kts | 315° |
| 2026-04-30 14:06 | 48.55169 | 11.63056 | 14811 ft | 312 kts | 315° |
| 2026-04-30 14:06 | 48.58485 | 11.58945 | 16047 ft | 317 kts | 338° |
| 2026-04-30 14:07 | 48.62802 | 11.56393 | 16757 ft | 343 kts | 343° |
| 2026-04-30 14:07 | 48.65051 | 11.55111 | 17403 ft | 347 kts | 343° |
| 2026-04-30 14:07 | 48.67325 | 11.53809 | 18077 ft | 350 kts | 343° |
| 2026-04-30 14:08 | 48.71918 | 11.51159 | 19332 ft | 356 kts | 343° |
| 2026-04-30 14:08 | 48.74240 | 11.49813 | 19924 ft | 359 kts | 343° |
| 2026-04-30 14:08 | 48.78939 | 11.47080 | 21091 ft | 365 kts | 343° |
| 2026-04-30 14:09 | 48.81319 | 11.45694 | 21664 ft | 367 kts | 343° |
| 2026-04-30 14:09 | 48.83716 | 11.44296 | 22223 ft | 370 kts | 344° |
| 2026-04-30 14:09 | 48.88540 | 11.41481 | 23314 ft | 376 kts | 344° |
| 2026-04-30 14:10 | 48.90995 | 11.40048 | 23872 ft | 379 kts | 344° |
| 2026-04-30 14:10 | 48.93437 | 11.38469 | 24329 ft | 385 kts | 340° |
| 2026-04-30 14:10 | 48.95862 | 11.36702 | 24790 ft | 388 kts | 339° |
| 2026-04-30 14:10 | 48.98295 | 11.34853 | 25236 ft | 391 kts | 339° |
| 2026-04-30 14:11 | 49.00721 | 11.32967 | 25682 ft | 393 kts | 339° |
| 2026-04-30 14:11 | 49.03162 | 11.31054 | 26120 ft | 396 kts | 339° |
| 2026-04-30 14:11 | 49.05621 | 11.29136 | 26565 ft | 398 kts | 339° |
| 2026-04-30 14:11 | 49.08106 | 11.27212 | 27004 ft | 401 kts | 339° |
| 2026-04-30 14:12 | 49.10601 | 11.25290 | 27432 ft | 403 kts | 339° |
| 2026-04-30 14:12 | 49.13117 | 11.23355 | 27848 ft | 405 kts | 340° |
| 2026-04-30 14:12 | 49.15650 | 11.21410 | 28274 ft | 408 kts | 340° |
| 2026-04-30 14:12 | 49.17332 | 11.20116 | 28549 ft | 410 kts | 340° |
| 2026-04-30 14:13 | 49.20747 | 11.17478 | 29115 ft | 413 kts | 340° |
| 2026-04-30 14:13 | 49.23324 | 11.15490 | 29522 ft | 416 kts | 340° |
| 2026-04-30 14:13 | 49.25918 | 11.13498 | 29926 ft | 418 kts | 340° |
| 2026-04-30 14:13 | 49.28531 | 11.11500 | 30297 ft | 421 kts | 340° |
| 2026-04-30 14:14 | 49.31145 | 11.09501 | 30370 ft | 414 kts | 340° |
| 2026-04-30 14:14 | 49.33669 | 11.07551 | 30376 ft | 399 kts | 340° |
| 2026-04-30 14:14 | 49.36086 | 11.05674 | 30378 ft | 389 kts | 340° |
| 2026-04-30 14:15 | 49.40886 | 11.01963 | 30387 ft | 385 kts | 341° |
| 2026-04-30 14:15 | 49.45666 | 10.98279 | 30386 ft | 384 kts | 341° |
| 2026-04-30 14:16 | 49.50450 | 10.94587 | 30379 ft | 384 kts | 340° |
| 2026-04-30 14:16 | 49.55229 | 10.90871 | 30374 ft | 385 kts | 340° |
| 2026-04-30 14:17 | 49.60006 | 10.87145 | 30372 ft | 385 kts | 340° |
| 2026-04-30 14:17 | 49.64790 | 10.83409 | 30371 ft | 385 kts | 340° |
| 2026-04-30 14:18 | 49.69538 | 10.79690 | 30367 ft | 385 kts | 340° |
| 2026-04-30 14:18 | 49.76710 | 10.74057 | 30369 ft | 385 kts | 340° |
| 2026-04-30 14:19 | 49.83880 | 10.68420 | 30369 ft | 385 kts | 340° |
| 2026-04-30 14:20 | 49.88669 | 10.64649 | 30375 ft | 386 kts | 340° |
| 2026-04-30 14:20 | 49.95854 | 10.58967 | 30382 ft | 386 kts | 340° |
| 2026-04-30 14:21 | 50.00657 | 10.55201 | 30380 ft | 386 kts | 340° |
| 2026-04-30 14:22 | 50.07871 | 10.49592 | 30381 ft | 387 kts | 340° |
| 2026-04-30 14:22 | 50.15094 | 10.43936 | 30384 ft | 387 kts | 340° |
| 2026-04-30 14:23 | 50.24622 | 10.36015 | 30380 ft | 391 kts | 335° |
| 2026-04-30 14:24 | 50.31492 | 10.29155 | 30383 ft | 392 kts | 334° |
| 2026-04-30 14:25 | 50.40691 | 10.20004 | 30381 ft | 392 kts | 333° |
| 2026-04-30 14:26 | 50.47462 | 10.12777 | 30384 ft | 393 kts | 332° |
| 2026-04-30 14:27 | 50.54243 | 10.05528 | 30390 ft | 392 kts | 332° |
| 2026-04-30 14:27 | 50.58761 | 10.00720 | 30189 ft | 391 kts | 332° |
| 2026-04-30 14:28 | 50.63238 | 9.95947 | 29622 ft | 386 kts | 332° |
| 2026-04-30 14:28 | 50.65460 | 9.93571 | 29343 ft | 384 kts | 332° |
| 2026-04-30 14:28 | 50.67666 | 9.91208 | 29061 ft | 383 kts | 332° |
| 2026-04-30 14:28 | 50.69120 | 9.89649 | 28876 ft | 381 kts | 331° |
| 2026-04-30 14:29 | 50.74225 | 9.84159 | 28242 ft | 378 kts | 331° |
| 2026-04-30 14:29 | 50.77822 | 9.80282 | 27797 ft | 376 kts | 331° |
| 2026-04-30 14:30 | 50.83802 | 9.72396 | 26700 ft | 389 kts | 304° |
| 2026-04-30 14:31 | 50.86535 | 9.63282 | 25493 ft | 395 kts | 298° |
| 2026-04-30 14:31 | 50.88468 | 9.56649 | 24657 ft | 396 kts | 298° |
| 2026-04-30 14:31 | 50.89622 | 9.52694 | 24169 ft | 396 kts | 298° |
| 2026-04-30 14:32 | 50.91944 | 9.44765 | 23037 ft | 396 kts | 298° |
| 2026-04-30 14:32 | 50.93101 | 9.40809 | 22477 ft | 395 kts | 298° |
| 2026-04-30 14:32 | 50.94253 | 9.36855 | 21927 ft | 394 kts | 298° |
| 2026-04-30 14:33 | 50.95381 | 9.32974 | 21397 ft | 393 kts | 298° |
| 2026-04-30 14:33 | 50.97656 | 9.25121 | 20347 ft | 389 kts | 298° |
| 2026-04-30 14:33 | 50.98783 | 9.21223 | 19833 ft | 387 kts | 297° |
| 2026-04-30 14:34 | 50.99906 | 9.17339 | 19333 ft | 385 kts | 297° |
| 2026-04-30 14:34 | 51.01021 | 9.13479 | 18833 ft | 383 kts | 297° |
| 2026-04-30 14:34 | 51.02125 | 9.09639 | 18293 ft | 381 kts | 297° |
| 2026-04-30 14:34 | 51.03220 | 9.05823 | 17737 ft | 379 kts | 297° |
| 2026-04-30 14:35 | 51.05399 | 8.98236 | 16648 ft | 375 kts | 297° |
| 2026-04-30 14:35 | 51.06474 | 8.94481 | 16122 ft | 372 kts | 297° |
| 2026-04-30 14:35 | 51.07537 | 8.90749 | 15598 ft | 370 kts | 297° |
| 2026-04-30 14:36 | 51.08591 | 8.87031 | 15089 ft | 368 kts | 297° |
| 2026-04-30 14:36 | 51.09640 | 8.83332 | 14583 ft | 365 kts | 297° |
| 2026-04-30 14:36 | 51.10685 | 8.79656 | 14074 ft | 364 kts | 297° |
| 2026-04-30 14:36 | 51.11842 | 8.76101 | 13511 ft | 360 kts | 302° |
| 2026-04-30 14:37 | 51.13079 | 8.72640 | 12963 ft | 358 kts | 302° |
| 2026-04-30 14:37 | 51.14302 | 8.69197 | 12421 ft | 357 kts | 302° |
| 2026-04-30 14:37 | 51.15518 | 8.65760 | 11895 ft | 355 kts | 302° |
| 2026-04-30 14:37 | 51.16723 | 8.62344 | 11475 ft | 350 kts | 302° |
| 2026-04-30 14:38 | 51.17894 | 8.59024 | 11378 ft | 336 kts | 302° |
| 2026-04-30 14:38 | 51.18997 | 8.55892 | 11392 ft | 322 kts | 302° |
| 2026-04-30 14:38 | 51.20124 | 8.52839 | 11155 ft | 317 kts | 308° |
| 2026-04-30 14:38 | 51.21519 | 8.50105 | 10908 ft | 312 kts | 314° |
| 2026-04-30 14:39 | 51.22935 | 8.47494 | 10666 ft | 311 kts | 314° |
| 2026-04-30 14:39 | 51.24329 | 8.44908 | 10429 ft | 310 kts | 314° |
| 2026-04-30 14:39 | 51.25728 | 8.42308 | 10261 ft | 308 kts | 314° |
| 2026-04-30 14:40 | 51.28510 | 8.37130 | 9984 ft | 306 kts | 313° |
| 2026-04-30 14:40 | 51.29900 | 8.34540 | 9853 ft | 307 kts | 313° |
| 2026-04-30 14:40 | 51.31284 | 8.31953 | 9721 ft | 306 kts | 313° |
| 2026-04-30 14:40 | 51.32667 | 8.29365 | 9586 ft | 306 kts | 313° |
| 2026-04-30 14:41 | 51.34049 | 8.26774 | 9453 ft | 306 kts | 313° |
| 2026-04-30 14:41 | 51.35364 | 8.24097 | 9317 ft | 307 kts | 305° |
| 2026-04-30 14:41 | 51.36452 | 8.21149 | 9187 ft | 307 kts | 302° |
| 2026-04-30 14:41 | 51.37527 | 8.18197 | 9057 ft | 306 kts | 302° |
| 2026-04-30 14:42 | 51.38601 | 8.15254 | 8923 ft | 306 kts | 302° |
| 2026-04-30 14:42 | 51.39673 | 8.12313 | 8796 ft | 305 kts | 302° |
| 2026-04-30 14:42 | 51.40743 | 8.09372 | 8654 ft | 305 kts | 302° |
| 2026-04-30 14:42 | 51.41800 | 8.06468 | 8533 ft | 304 kts | 302° |
| 2026-04-30 14:43 | 51.42872 | 8.03545 | 8404 ft | 305 kts | 302° |
| 2026-04-30 14:43 | 51.43947 | 8.00627 | 8268 ft | 304 kts | 302° |
| 2026-04-30 14:43 | 51.45028 | 7.97692 | 8140 ft | 297 kts | 302° |
| 2026-04-30 14:43 | 51.46059 | 7.94893 | 8022 ft | 293 kts | 302° |
| 2026-04-30 14:44 | 51.47095 | 7.92082 | 7853 ft | 292 kts | 302° |
| 2026-04-30 14:44 | 51.48090 | 7.89243 | 7548 ft | 292 kts | 295° |
| 2026-04-30 14:44 | 51.48739 | 7.86159 | 7215 ft | 291 kts | 284° |
| 2026-04-30 14:44 | 51.49253 | 7.83010 | 6880 ft | 293 kts | 284° |
| 2026-04-30 14:45 | 51.49772 | 7.79843 | 6521 ft | 294 kts | 284° |
| 2026-04-30 14:45 | 51.50294 | 7.76673 | 6182 ft | 295 kts | 284° |
| 2026-04-30 14:45 | 51.50818 | 7.73503 | 5901 ft | 293 kts | 284° |
| 2026-04-30 14:45 | 51.51342 | 7.70331 | 5520 ft | 296 kts | 284° |
| 2026-04-30 14:46 | 51.51749 | 7.67094 | 5147 ft | 296 kts | 271° |
| 2026-04-30 14:46 | 51.51533 | 7.63843 | 4833 ft | 288 kts | 250° |
| 2026-04-30 14:46 | 51.50725 | 7.60985 | 4581 ft | 277 kts | 231° |
| 2026-04-30 14:46 | 51.49466 | 7.58723 | 4320 ft | 268 kts | 216° |
| 2026-04-30 14:47 | 51.48075 | 7.56754 | 4067 ft | 265 kts | 217° |
| 2026-04-30 14:47 | 51.46696 | 7.54786 | 3811 ft | 264 kts | 218° |
| 2026-04-30 14:47 | 51.45324 | 7.52822 | 3555 ft | 264 kts | 218° |
| 2026-04-30 14:47 | 51.43951 | 7.50860 | 3307 ft | 264 kts | 218° |
| 2026-04-30 14:48 | 51.42587 | 7.48909 | 3070 ft | 259 kts | 218° |
| 2026-04-30 14:48 | 51.41264 | 7.47014 | 3006 ft | 248 kts | 218° |
| 2026-04-30 14:48 | 51.40098 | 7.45079 | 2996 ft | 238 kts | 236° |
| 2026-04-30 14:48 | 51.39700 | 7.42601 | 3010 ft | 228 kts | 272° |
| 2026-04-30 14:49 | 51.40202 | 7.40323 | 3033 ft | 210 kts | 309° |
| 2026-04-30 14:49 | 51.41298 | 7.38904 | 3000 ft | 200 kts | 341° |
| 2026-04-30 14:49 | 51.42622 | 7.38607 | 3013 ft | 189 kts | 13° |
| 2026-04-30 14:49 | 51.43788 | 7.39319 | 3010 ft | 179 kts | 40° |
| 2026-04-30 14:50 | 51.45198 | 7.42451 | 2961 ft | 176 kts | 66° |
| 2026-04-30 14:50 | 51.45806 | 7.44164 | 2774 ft | 176 kts | 64° |
| 2026-04-30 14:51 | 51.47002 | 7.47539 | 2326 ft | 174 kts | 64° |
| 2026-04-30 14:51 | 51.47592 | 7.49208 | 2088 ft | 169 kts | 64° |
| 2026-04-30 14:51 | 51.48669 | 7.52246 | 1659 ft | 144 kts | 64° |
| 2026-04-30 14:52 | 51.49148 | 7.53603 | 1471 ft | 135 kts | 65° |
| 2026-04-30 14:52 | 51.50069 | 7.56210 | 1069 ft | 134 kts | 61° |
| 2026-04-30 14:52 | 51.50533 | 7.57524 | 920 ft | 134 kts | 60° |
| 2026-04-30 14:53 | 51.51452 | 7.60135 | 518 ft | 134 kts | 62° |
| 2026-04-30 14:53 | 51.51879 | 7.61364 | 419 ft | 106 kts | 61° |
| 2026-04-30 14:54 | 51.52192 | 7.62285 | 414 ft | 17 kts | 106° |
| 2026-04-30 14:54 | 51.52028 | 7.62327 | 413 ft | 16 kts | 238° |
| 2026-04-30 14:55 | 51.51921 | 7.62019 | 411 ft | 16 kts | 239° |
| 2026-04-30 14:55 | 51.51867 | 7.61865 | 416 ft | 16 kts | 240° |
| 2026-04-30 14:55 | 51.51754 | 7.61544 | 420 ft | 15 kts | 241° |
| 2026-04-30 14:56 | 51.51692 | 7.61505 | 418 ft | 3 kts | 145° |
| 2026-04-30 14:56 | 51.51667 | 7.61527 | 426 ft | 2 kts | 153° |
| 2026-04-30 14:57 | 51.51662 | 7.61531 | 428 ft | 0 kts | 153° |